Time;durP1;ratioP1;P1;durP2;ratioP2;P2;SDS_P1;SDS_P2;PMS_P1;PMS_P2;Temp;Humidity;BMP_temperature;BMP_pressure;BME280_temperature;BME280_humidity;BME280_pressure;Samples;Min_cycle;Max_cycle;Signal;HPM_P1;HPM_P2
2022/06/08 00:02:16;;;;;;;4.03;3.03;;;;;;;22.69;43.87;101081.34;5001378;28;20045;-82
2022/06/08 00:04:42;;;;;;;3.65;3.10;;;;;;;22.69;44.09;101085.84;4987449;28;20030;-82
2022/06/08 00:07:08;;;;;;;4.85;2.88;;;;;;;22.70;43.71;101082.97;5001614;28;20400;-83
2022/06/08 00:09:34;;;;;;;5.45;2.90;;;;;;;22.63;44.12;101068.84;5000520;28;20042;-82
2022/06/08 00:12:01;;;;;;;2.88;2.58;;;;;;;22.60;44.10;101058.59;4999145;28;20495;-83
2022/06/08 00:14:26;;;;;;;7.47;2.97;;;;;;;22.68;44.03;101078.88;4998040;28;20632;-82
2022/06/08 00:16:51;;;;;;;4.90;2.88;;;;;;;22.66;43.84;101070.28;5001707;28;20100;-82
2022/06/08 00:19:17;;;;;;;4.25;2.97;;;;;;;22.67;43.94;101071.94;4989348;28;20050;-82
2022/06/08 00:21:43;;;;;;;4.88;3.40;;;;;;;22.65;44.16;101064.16;4964246;28;20041;-81
2022/06/08 00:24:08;;;;;;;3.25;2.83;;;;;;;22.68;43.89;101065.59;5000346;28;20053;-83
2022/06/08 00:26:36;;;;;;;4.07;2.70;;;;;;;22.58;44.07;101052.66;4998528;28;20065;-83
2022/06/08 00:29:02;;;;;;;4.82;3.20;;;;;;;22.56;43.78;101044.91;4982238;28;20085;-83
2022/06/08 00:31:28;;;;;;;3.00;2.70;;;;;;;22.66;44.14;101062.34;4997122;28;20048;-82
2022/06/08 00:33:53;;;;;;;3.25;2.70;;;;;;;22.65;44.13;101055.38;4999007;28;20042;-82
2022/06/08 00:36:19;;;;;;;4.25;2.90;;;;;;;22.60;43.80;101054.09;4971274;28;20042;-82
2022/06/08 00:38:45;;;;;;;4.45;2.67;;;;;;;22.66;43.75;101057.84;4963649;28;20042;-82
2022/06/08 00:41:19;;;;;;;4.32;3.13;;;;;;;22.65;43.87;101056.22;4997050;28;20054;-82
2022/06/08 00:43:45;;;;;;;5.47;3.38;;;;;;;22.57;43.82;101037.75;4998518;28;20042;-82
2022/06/08 00:46:12;;;;;;;3.40;3.00;;;;;;;22.63;44.11;101044.16;5003698;28;20042;-82
2022/06/08 00:48:42;;;;;;;3.45;2.70;;;;;;;22.63;43.81;101036.19;4983195;28;20044;-82
2022/06/08 00:51:08;;;;;;;5.10;3.25;;;;;;;22.42;44.27;100999.88;4974779;28;20034;-82
2022/06/08 00:53:38;;;;;;;3.78;2.88;;;;;;;22.60;44.21;101035.53;4983879;28;20092;-82
2022/06/08 00:56:09;;;;;;;3.83;3.08;;;;;;;22.47;43.76;101018.69;5000453;28;20392;-82
2022/06/08 00:58:37;;;;;;;4.28;3.05;;;;;;;22.59;43.77;101033.88;4999903;28;20140;-82
2022/06/08 01:01:03;;;;;;;5.13;3.25;;;;;;;22.48;43.95;101023.00;4998627;28;20042;-82
2022/06/08 01:03:29;;;;;;;4.10;3.00;;;;;;;22.51;43.96;101022.59;5001964;28;20036;-82
2022/06/08 01:06:01;;;;;;;4.20;3.00;;;;;;;22.55;44.12;101032.63;4987483;28;20033;-82
2022/06/08 01:08:45;;;;;;;4.63;3.20;;;;;;;22.60;44.13;101038.19;4999530;28;20033;-83
2022/06/08 01:11:53;;;;;;;7.15;3.30;;;;;;;22.61;43.63;101033.69;5002039;28;20040;-82
2022/06/08 01:14:19;;;;;;;4.55;3.25;;;;;;;22.59;43.98;101025.94;4981028;28;20067;-83
2022/06/08 01:16:52;;;;;;;3.90;2.65;;;;;;;22.61;43.63;101021.25;4999401;28;20744;-82
2022/06/08 01:19:19;;;;;;;4.55;3.30;;;;;;;22.58;44.02;101018.97;4999537;28;20088;-82
2022/06/08 01:21:48;;;;;;;3.67;2.90;;;;;;;22.59;43.93;101014.50;4992053;28;20080;-83
2022/06/08 01:24:20;;;;;;;4.03;3.20;;;;;;;22.53;43.84;100996.69;4979862;28;20054;-82
2022/06/08 01:26:59;;;;;;;4.73;3.13;;;;;;;22.53;43.69;100999.34;4993597;28;20057;-82
2022/06/08 01:29:34;;;;;;;4.45;3.42;;;;;;;22.58;43.82;101010.19;4999052;28;20032;-82
2022/06/08 01:32:23;;;;;;;4.53;3.28;;;;;;;22.43;44.04;100981.09;5001094;28;20613;-83
2022/06/08 01:35:03;;;;;;;5.18;3.42;;;;;;;22.57;44.07;101008.56;4989702;28;25516;-83
2022/06/08 01:37:35;;;;;;;5.03;3.38;;;;;;;22.55;43.97;101008.75;5000505;28;20116;-82
2022/06/08 01:40:23;;;;;;;5.63;3.42;;;;;;;22.55;43.76;101003.44;5002577;28;20041;-82
2022/06/08 01:43:26;;;;;;;4.90;3.20;;;;;;;22.55;44.06;100995.47;4996605;28;20147;-83
2022/06/08 01:46:04;;;;;;;4.68;3.20;;;;;;;22.54;43.67;100991.19;5000512;28;20030;-82
2022/06/08 01:48:51;;;;;;;5.50;3.35;;;;;;;22.51;43.93;100990.75;4981415;28;21680;-83
2022/06/08 01:51:49;;;;;;;4.40;3.08;;;;;;;22.48;43.69;100981.34;4989049;28;20041;-83
2022/06/08 01:54:35;;;;;;;4.05;3.15;;;;;;;22.50;43.72;100989.13;4998116;28;20041;-83
2022/06/08 01:57:39;;;;;;;4.55;3.30;;;;;;;22.51;43.81;100991.59;4982302;28;20034;-83
2022/06/08 02:00:16;;;;;;;4.60;3.33;;;;;;;22.45;43.73;100973.78;4981551;28;20042;-83
2022/06/08 02:03:00;;;;;;;3.75;3.35;;;;;;;22.51;43.88;100980.97;4997668;28;20818;-83
2022/06/08 02:06:11;;;;;;;6.47;3.40;;;;;;;22.50;43.77;100981.97;4983701;28;20033;-83
2022/06/08 02:08:56;;;;;;;4.28;3.22;;;;;;;22.40;43.78;100952.31;4978332;28;20042;-82
2022/06/08 02:11:30;;;;;;;5.18;3.65;;;;;;;22.51;43.71;100961.56;4978708;28;20048;-82
2022/06/08 02:14:12;;;;;;;5.28;3.17;;;;;;;22.49;43.98;100964.41;4993920;28;20594;-81
2022/06/08 02:16:54;;;;;;;4.22;3.35;;;;;;;22.36;43.75;100934.31;4991288;28;20165;-85
2022/06/08 02:19:34;;;;;;;5.55;3.42;;;;;;;22.41;43.89;100948.63;5005344;28;20042;-85
2022/06/08 02:22:08;;;;;;;3.47;2.75;;;;;;;22.43;43.72;100943.94;4994483;28;20030;-85
2022/06/08 02:24:44;;;;;;;7.50;3.58;;;;;;;22.34;43.77;100933.69;4984260;28;20029;-85
2022/06/08 02:27:13;;;;;;;5.65;3.70;;;;;;;22.48;43.72;100949.50;5005912;28;20034;-85
2022/06/08 02:30:18;;;;;;;3.77;3.10;;;;;;;22.15;43.84;100903.38;5006245;28;20030;-84
2022/06/08 02:36:06;;;;;;;4.68;3.55;;;;;;;22.44;43.66;100940.31;4992815;28;20120;-84
2022/06/08 02:38:36;;;;;;;4.63;3.30;;;;;;;22.29;43.83;100921.00;5006504;28;20053;-83
2022/06/08 02:41:08;;;;;;;4.80;3.53;;;;;;;22.34;43.87;100929.19;5004703;28;20049;-83
2022/06/08 02:43:47;;;;;;;4.88;3.70;;;;;;;22.40;43.89;100938.22;4999730;28;20030;-83
2022/06/08 02:46:46;;;;;;;4.68;3.35;;;;;;;22.30;43.77;100915.50;5003743;28;20026;-84
2022/06/08 02:49:12;;;;;;;5.03;3.55;;;;;;;22.34;43.87;100921.25;4994437;28;20030;-83
2022/06/08 02:51:43;;;;;;;5.50;3.08;;;;;;;22.43;43.72;100932.50;4977830;28;20642;-84
2022/06/08 02:54:23;;;;;;;6.50;3.42;;;;;;;22.43;43.58;100924.56;5004711;28;20665;-85
2022/06/08 02:57:12;;;;;;;7.05;3.20;;;;;;;22.40;43.68;100917.81;5004739;28;20033;-84
2022/06/08 03:00:14;;;;;;;5.88;3.50;;;;;;;22.40;43.73;100923.13;5004356;28;20030;-84
2022/06/08 03:02:45;;;;;;;4.55;3.03;;;;;;;22.40;44.11;100922.28;4969485;28;20080;-84
2022/06/08 03:05:20;;;;;;;4.93;3.47;;;;;;;22.39;43.76;100921.47;5003429;28;20034;-84
2022/06/08 03:07:53;;;;;;;4.70;3.53;;;;;;;22.38;43.70;100919.03;4976961;28;20030;-84
2022/06/08 03:10:20;;;;;;;3.97;3.30;;;;;;;22.36;43.78;100910.44;5005648;28;20033;-83
2022/06/08 03:13:00;;;;;;;5.15;3.50;;;;;;;22.36;43.99;100910.44;4988664;28;20495;-84
2022/06/08 03:15:26;;;;;;;4.00;2.88;;;;;;;22.38;43.71;100905.75;5005512;28;20041;-85
2022/06/08 03:17:53;;;;;;;5.35;3.40;;;;;;;22.38;43.79;100903.91;4987508;28;20037;-84
2022/06/08 03:20:22;;;;;;;4.95;3.30;;;;;;;22.37;44.09;100910.25;4974450;28;20068;-84
2022/06/08 03:22:48;;;;;;;5.38;3.35;;;;;;;22.37;43.77;100894.31;5006122;28;20527;-85
2022/06/08 03:25:14;;;;;;;4.68;3.28;;;;;;;22.37;43.65;100896.97;5004392;28;20123;-85
2022/06/08 03:27:44;;;;;;;4.00;3.30;;;;;;;22.32;43.79;100896.75;4986950;28;20026;-85
2022/06/08 03:30:11;;;;;;;5.95;3.13;;;;;;;22.36;43.87;100897.19;5000796;28;20498;-85
2022/06/08 03:32:39;;;;;;;5.53;3.72;;;;;;;22.35;43.86;100904.31;5002212;28;20042;-85
2022/06/08 03:35:09;;;;;;;4.78;3.72;;;;;;;22.36;43.70;100895.34;4984025;28;20045;-85
2022/06/08 03:37:35;;;;;;;3.72;3.33;;;;;;;22.35;43.97;100893.69;5004291;28;20112;-85
2022/06/08 03:40:04;;;;;;;4.60;3.40;;;;;;;22.34;43.89;100897.38;5003642;28;20076;-84
2022/06/08 03:42:29;;;;;;;6.15;3.63;;;;;;;22.34;43.78;100897.38;5005765;28;20496;-84
2022/06/08 03:44:55;;;;;;;4.63;3.33;;;;;;;22.34;43.72;100900.03;4998314;28;20133;-85
2022/06/08 03:47:24;;;;;;;5.10;3.33;;;;;;;22.34;43.69;100899.19;5006192;28;20665;-85
2022/06/08 03:49:51;;;;;;;5.93;3.38;;;;;;;22.25;43.63;100883.41;5004984;28;20037;-84
2022/06/08 03:52:22;;;;;;;6.82;3.28;;;;;;;22.34;43.89;100893.91;4982927;28;20117;-85
2022/06/08 03:54:53;;;;;;;4.60;3.70;;;;;;;22.31;43.73;100892.47;4998749;28;20038;-85
2022/06/08 03:57:20;;;;;;;5.55;3.25;;;;;;;22.23;43.94;100874.84;5004038;28;20034;-85
2022/06/08 03:59:47;;;;;;;4.75;3.50;;;;;;;22.24;43.72;100871.19;5006494;28;20045;-84
2022/06/08 04:02:14;;;;;;;6.93;4.05;;;;;;;22.33;43.54;100884.31;4995126;28;20062;-84
2022/06/08 04:04:42;;;;;;;4.57;3.17;;;;;;;22.26;44.01;100868.31;4994946;28;20034;-85
2022/06/08 04:07:08;;;;;;;5.47;3.83;;;;;;;22.24;43.87;100863.22;4994613;28;20034;-85
2022/06/08 04:09:37;;;;;;;5.82;4.00;;;;;;;22.27;43.77;100875.31;4999461;28;20575;-84
2022/06/08 04:12:04;;;;;;;6.28;3.63;;;;;;;22.31;43.72;100881.84;4968076;28;20038;-85
2022/06/08 04:14:31;;;;;;;4.72;3.50;;;;;;;22.28;43.58;100871.63;5003271;28;20053;-85
2022/06/08 04:16:57;;;;;;;5.97;3.50;;;;;;;22.30;43.82;100880.22;5005096;28;20040;-85
2022/06/08 04:19:22;;;;;;;4.05;3.38;;;;;;;22.30;43.55;100877.56;5006864;28;20026;-84
2022/06/08 04:21:49;;;;;;;5.88;3.22;;;;;;;22.29;43.76;100876.75;4978192;28;20385;-85
2022/06/08 04:24:17;;;;;;;5.97;3.50;;;;;;;22.31;43.87;100873.88;4999001;28;20045;-86
2022/06/08 04:26:48;;;;;;;5.40;3.50;;;;;;;22.21;43.55;100860.97;5003766;28;21489;-85
2022/06/08 04:29:20;;;;;;;8.60;3.83;;;;;;;22.27;43.77;100864.69;5004476;28;20387;-85
2022/06/08 04:31:47;;;;;;;5.10;3.65;;;;;;;22.30;43.64;100873.06;4981306;28;20044;-85
2022/06/08 04:34:17;;;;;;;5.65;3.42;;;;;;;22.25;43.60;100866.69;5000599;28;20052;-85
2022/06/08 04:36:43;;;;;;;5.80;3.20;;;;;;;22.31;43.61;100874.72;4990339;28;20116;-85
2022/06/08 04:39:11;;;;;;;5.25;3.30;;;;;;;22.33;43.60;100881.66;4986457;28;20583;-85
2022/06/08 04:41:41;;;;;;;5.65;3.58;;;;;;;22.27;43.72;100872.66;5002415;28;20026;-85
2022/06/08 04:44:07;;;;;;;5.50;3.33;;;;;;;22.31;43.86;100871.22;5008920;28;20045;-85
2022/06/08 04:46:34;;;;;;;3.72;3.20;;;;;;;22.32;43.51;100875.53;4985093;28;20044;-86
2022/06/08 04:49:01;;;;;;;4.68;3.42;;;;;;;22.32;43.76;100878.19;5004048;28;20133;-85
2022/06/08 04:51:29;;;;;;;4.93;3.00;;;;;;;22.30;43.88;100885.50;5010852;28;20041;-85
2022/06/08 04:53:57;;;;;;;5.80;3.53;;;;;;;22.24;43.51;100884.44;4983885;28;20045;-84
2022/06/08 04:56:24;;;;;;;4.90;3.20;;;;;;;22.30;43.50;100891.63;5005040;28;20129;-84
2022/06/08 04:58:54;;;;;;;5.07;3.35;;;;;;;22.20;43.56;100871.75;5005663;28;20038;-84
2022/06/08 05:01:22;;;;;;;4.80;3.70;;;;;;;22.15;43.89;100864.41;5003777;28;20116;-84
2022/06/08 05:03:50;;;;;;;5.72;3.83;;;;;;;22.30;43.79;100888.97;4997594;28;20065;-84
2022/06/08 05:06:17;;;;;;;5.85;3.70;;;;;;;22.30;43.60;100878.38;5004064;28;20042;-84
2022/06/08 05:08:42;;;;;;;4.78;3.60;;;;;;;22.30;43.74;100877.56;4995781;28;20084;-84
2022/06/08 05:11:08;;;;;;;5.32;3.75;;;;;;;22.30;43.73;100877.56;5002093;28;20062;-84
2022/06/08 05:13:37;;;;;;;6.75;4.10;;;;;;;22.19;43.63;100859.53;5001962;28;20048;-84
2022/06/08 05:16:07;;;;;;;5.80;3.60;;;;;;;22.26;43.86;100873.63;5003857;28;20054;-84
2022/06/08 05:18:35;;;;;;;6.10;4.18;;;;;;;22.30;43.83;100878.38;4991126;28;20111;-85
2022/06/08 05:21:04;;;;;;;5.55;3.90;;;;;;;22.31;43.68;100872.06;5002864;28;20726;-85
2022/06/08 05:23:36;;;;;;;6.15;3.78;;;;;;;22.22;43.81;100859.94;4995184;28;20034;-85
2022/06/08 05:26:12;;;;;;;6.03;4.07;;;;;;;22.29;43.82;100871.44;5005700;28;20450;-85
2022/06/08 05:28:38;;;;;;;7.85;4.28;;;;;;;22.31;43.87;100868.59;5002864;28;20069;-86
2022/06/08 05:31:04;;;;;;;5.78;4.05;;;;;;;22.29;43.74;100866.13;4992409;28;20037;-85
2022/06/08 05:33:34;;;;;;;8.13;3.92;;;;;;;22.28;44.05;100864.50;5007254;28;20057;-85
2022/06/08 05:36:06;;;;;;;5.60;4.20;;;;;;;22.30;43.76;100865.13;5003981;28;20042;-83
2022/06/08 05:38:33;;;;;;;8.38;4.57;;;;;;;22.31;43.87;100871.22;4989068;28;20537;-79
2022/06/08 05:40:59;;;;;;;6.25;4.32;;;;;;;22.06;43.78;100824.94;4995829;28;20062;-79
2022/06/08 05:43:25;;;;;;;6.50;4.43;;;;;;;22.26;43.80;100860.38;4987282;28;20038;-80
2022/06/08 05:45:53;;;;;;;6.80;4.18;;;;;;;22.19;43.89;100852.38;4951447;28;20095;-80
2022/06/08 05:48:20;;;;;;;5.93;3.95;;;;;;;22.26;43.60;100858.56;4997165;28;20127;-80
2022/06/08 05:50:48;;;;;;;7.00;4.60;;;;;;;22.25;43.82;100856.91;4966492;28;20061;-80
2022/06/08 05:53:16;;;;;;;6.43;4.38;;;;;;;22.31;43.66;100863.28;4979347;28;20041;-81
2022/06/08 05:55:42;;;;;;;5.95;4.25;;;;;;;22.31;44.02;100855.31;4997834;28;20069;-81
2022/06/08 05:58:09;;;;;;;6.95;4.22;;;;;;;22.31;43.97;100853.47;4979007;28;20038;-82
2022/06/08 06:00:37;;;;;;;7.38;4.68;;;;;;;22.31;44.13;100850.00;5001652;28;20482;-81
2022/06/08 06:03:04;;;;;;;8.60;4.72;;;;;;;22.33;44.30;100845.31;4999790;28;20515;-81
2022/06/08 06:05:33;;;;;;;7.45;4.70;;;;;;;22.35;44.22;100850.44;4964603;28;20132;-81
2022/06/08 06:08:04;;;;;;;9.40;4.95;;;;;;;22.25;44.29;100832.19;4997808;28;20484;-81
2022/06/08 06:10:34;;;;;;;10.57;5.13;;;;;;;22.35;44.26;100831.88;4991179;28;20176;-81
2022/06/08 06:13:03;;;;;;;9.48;5.88;;;;;;;22.35;44.10;100843.28;5002108;28;20057;-80
2022/06/08 06:15:42;;;;;;;7.50;5.18;;;;;;;22.26;44.04;100821.44;4995767;28;20460;-81
2022/06/08 06:18:08;;;;;;;8.18;5.35;;;;;;;22.36;44.32;100831.66;5000738;28;20092;-81
2022/06/08 06:20:37;;;;;;;8.60;5.30;;;;;;;22.31;44.21;100820.84;4984074;28;20042;-81
2022/06/08 06:23:35;;;;;;;8.90;5.45;;;;;;;22.29;44.05;100826.34;4970080;28;20049;-80
2022/06/08 06:26:19;;;;;;;6.32;4.38;;;;;;;22.39;43.94;100835.75;4998771;28;20561;-80
2022/06/08 06:29:04;;;;;;;6.82;4.45;;;;;;;22.37;44.42;100832.47;4994219;28;20639;-80
2022/06/08 06:31:40;;;;;;;8.88;5.35;;;;;;;22.38;44.16;100831.47;4992919;28;20525;-79
2022/06/08 06:34:12;;;;;;;8.32;4.75;;;;;;;22.27;44.21;100816.94;4995370;28;20064;-79
2022/06/08 06:36:39;;;;;;;7.88;5.18;;;;;;;22.31;44.23;100810.22;4994698;28;20037;-79
2022/06/08 06:39:05;;;;;;;7.88;4.93;;;;;;;22.40;44.36;100830.25;4968513;28;20033;-80
2022/06/08 06:41:34;;;;;;;7.57;5.18;;;;;;;22.42;44.10;100824.75;4993731;28;20162;-80
2022/06/08 06:44:01;;;;;;;7.32;4.93;;;;;;;22.31;44.51;100811.03;4976262;28;20049;-80
2022/06/08 06:46:39;;;;;;;12.02;5.68;;;;;;;22.34;44.37;100803.69;5001903;28;20038;-80
2022/06/08 06:49:11;;;;;;;9.15;5.40;;;;;;;22.45;44.60;100819.88;4998632;28;20100;-80
2022/06/08 06:51:37;;;;;;;7.80;5.10;;;;;;;22.44;44.70;100817.41;4969568;28;20038;-80
2022/06/08 06:54:05;;;;;;;10.98;5.25;;;;;;;22.44;44.76;100804.97;4988502;28;20026;-80
2022/06/08 06:56:35;;;;;;;8.05;5.30;;;;;;;22.44;44.62;100802.34;4998881;28;20033;-80
2022/06/08 06:59:05;;;;;;;7.35;5.07;;;;;;;22.46;44.68;100800.28;5001627;28;20435;-80
2022/06/08 07:01:34;;;;;;;8.65;5.50;;;;;;;22.41;44.87;100791.28;4982036;28;20065;-80
2022/06/08 07:04:01;;;;;;;6.30;4.68;;;;;;;22.41;44.67;100785.97;4997157;28;20133;-80
2022/06/08 07:06:29;;;;;;;9.68;5.18;;;;;;;22.37;44.77;100779.41;4984272;28;20766;-80
2022/06/08 07:08:59;;;;;;;8.18;5.18;;;;;;;22.52;44.80;100806.63;4967072;28;20030;-80
2022/06/08 07:11:35;;;;;;;8.30;4.80;;;;;;;22.51;44.73;100805.81;4965500;28;20033;-80
2022/06/08 07:14:17;;;;;;;9.70;5.38;;;;;;;22.44;44.64;100783.75;4994211;28;20030;-80
2022/06/08 07:16:45;;;;;;;7.35;4.97;;;;;;;22.42;44.70;100787.59;4996065;28;20715;-80
2022/06/08 07:19:12;;;;;;;7.65;5.00;;;;;;;22.51;44.46;100795.19;4999091;28;20037;-80
2022/06/08 07:21:39;;;;;;;9.07;5.10;;;;;;;22.53;44.82;100795.00;4999083;28;20504;-80
2022/06/08 07:24:06;;;;;;;8.65;4.80;;;;;;;22.51;44.64;100791.72;4988649;28;20072;-80
2022/06/08 07:26:32;;;;;;;9.40;4.95;;;;;;;22.55;44.63;100791.13;4996834;28;20090;-80
2022/06/08 07:28:58;;;;;;;8.90;4.78;;;;;;;22.57;44.29;100790.94;4999058;28;20050;-80
2022/06/08 07:31:25;;;;;;;6.70;4.20;;;;;;;22.55;44.54;100782.34;4998851;28;20037;-80
2022/06/08 07:33:51;;;;;;;7.38;4.90;;;;;;;22.43;44.51;100758.22;4994258;28;20174;-80
2022/06/08 07:36:17;;;;;;;9.18;4.30;;;;;;;22.58;44.56;100776.66;4996452;28;20144;-80
2022/06/08 07:38:43;;;;;;;7.05;4.72;;;;;;;22.47;44.55;100763.97;5000723;28;20030;-80
2022/06/08 07:41:08;;;;;;;6.53;4.85;;;;;;;22.60;44.33;100775.41;4986940;28;20143;-79
2022/06/08 07:43:34;;;;;;;7.93;4.70;;;;;;;22.45;44.54;100760.69;5005098;28;20366;-79
2022/06/08 07:46:00;;;;;;;7.18;4.97;;;;;;;22.61;44.47;100781.53;4999828;28;20040;-80
2022/06/08 07:51:10;;;;;;;6.25;4.80;;;;;;;22.61;44.50;100779.72;4998841;28;20041;-80
2022/06/08 07:53:36;;;;;;;8.20;4.57;;;;;;;22.56;44.50;100762.75;5000454;28;20079;-80
2022/06/08 07:56:03;;;;;;;8.15;5.20;;;;;;;22.61;44.42;100777.06;4975367;28;20590;-80
2022/06/08 07:58:28;;;;;;;7.60;4.78;;;;;;;22.58;44.54;100769.50;4996436;28;20065;-80
2022/06/08 08:00:57;;;;;;;6.72;4.63;;;;;;;22.51;44.59;100757.25;4998171;28;20053;-80
2022/06/08 08:03:22;;;;;;;8.23;4.88;;;;;;;22.63;44.40;100774.22;4982190;28;20125;-80
2022/06/08 08:05:48;;;;;;;7.30;4.80;;;;;;;22.59;44.39;100763.16;5001263;28;20099;-80
2022/06/08 08:08:17;;;;;;;5.75;4.10;;;;;;;22.62;44.39;100756.66;4992773;28;20042;-80
2022/06/08 08:10:43;;;;;;;8.23;4.85;;;;;;;22.55;44.32;100746.00;4979912;28;20049;-79
2022/06/08 08:13:09;;;;;;;6.53;4.53;;;;;;;22.65;44.44;100756.28;4992256;28;20574;-81
2022/06/08 08:15:34;;;;;;;6.88;4.50;;;;;;;22.66;44.57;100755.25;5002439;28;20038;-82
2022/06/08 08:18:00;;;;;;;5.80;4.47;;;;;;;22.63;44.44;100739.72;4998608;28;20034;-80
2022/06/08 08:20:28;;;;;;;8.77;4.97;;;;;;;22.68;44.52;100747.09;5002861;28;20049;-81
2022/06/08 08:22:58;;;;;;;6.00;4.72;;;;;;;22.69;44.40;100743.41;5004432;28;20045;-80
2022/06/08 08:25:25;;;;;;;8.30;4.95;;;;;;;22.70;43.92;100739.72;4985891;28;20046;-80
2022/06/08 08:27:51;;;;;;;7.10;4.70;;;;;;;22.68;44.08;100731.97;5001024;28;20578;-79
2022/06/08 08:30:20;;;;;;;6.18;4.35;;;;;;;22.73;44.53;100747.28;5001961;28;20052;-80
2022/06/08 08:32:46;;;;;;;7.38;4.32;;;;;;;22.73;44.24;100742.81;4996638;28;20108;-79
2022/06/08 08:35:12;;;;;;;7.13;4.82;;;;;;;22.74;44.31;100744.44;4997453;28;20744;-79
2022/06/08 08:37:39;;;;;;;5.70;4.10;;;;;;;22.77;44.39;100737.91;5002643;28;20037;-80
2022/06/08 08:40:29;;;;;;;5.55;4.40;;;;;;;22.73;44.10;100726.88;4987756;28;20814;-79
2022/06/08 08:42:55;;;;;;;6.45;3.97;;;;;;;22.78;44.28;100732.38;5002577;28;20472;-80
2022/06/08 08:45:20;;;;;;;7.03;4.47;;;;;;;;;;5000203;28;20040;-79
2022/06/08 08:48:03;;;;;;;6.28;4.10;;;;;;;22.80;44.45;100724.22;5003663;28;20034;-79
2022/06/08 08:50:34;;;;;;;6.05;4.25;;;;;;;22.74;44.34;100722.38;5001694;28;20038;-79
2022/06/08 08:53:09;;;;;;;5.47;4.18;;;;;;;22.81;44.44;100726.69;5002541;28;20057;-79
2022/06/08 08:55:48;;;;;;;5.63;3.97;;;;;;;;;;4972633;28;20040;-80
2022/06/08 08:58:18;;;;;;;6.93;3.85;;;;;;;22.78;44.08;100721.78;5003988;28;20532;-80
2022/06/08 09:00:48;;;;;;;4.60;3.70;;;;;;;22.84;44.04;100726.31;5001759;28;20030;-81
2022/06/08 09:03:19;;;;;;;7.13;3.85;;;;;;;22.86;44.06;100716.31;5002318;28;20042;-80
2022/06/08 09:05:49;;;;;;;6.85;3.88;;;;;;;22.86;44.14;100718.97;5000878;28;20045;-80
2022/06/08 09:08:16;;;;;;;6.70;4.28;;;;;;;22.89;44.24;100718.56;4997439;28;21276;-81
2022/06/08 09:10:43;;;;;;;6.20;4.13;;;;;;;22.79;44.16;100704.81;4984994;28;20045;-81
2022/06/08 09:13:20;;;;;;;7.47;4.93;;;;;;;22.80;43.96;100706.47;5001706;28;20037;-81
2022/06/08 09:15:47;;;;;;;5.30;3.88;;;;;;;22.89;43.90;100723.88;4999947;28;20029;-81
2022/06/08 09:18:34;;;;;;;5.65;3.85;;;;;;;22.90;43.98;100714.06;4998669;28;20041;-80
2022/06/08 09:21:18;;;;;;;6.30;3.47;;;;;;;22.88;43.99;100708.16;4998961;28;20809;-80
2022/06/08 09:23:44;;;;;;;5.43;3.95;;;;;;;22.91;43.89;100702.41;4997141;28;20131;-80
2022/06/08 09:26:16;;;;;;;5.68;3.90;;;;;;;22.94;44.08;100704.66;4989047;28;20133;-80
2022/06/08 09:28:43;;;;;;;4.97;3.58;;;;;;;22.79;44.06;100682.75;5003348;28;20037;-79
2022/06/08 09:31:31;;;;;;;5.55;3.95;;;;;;;22.93;43.94;100695.06;5002209;28;20840;-80
2022/06/08 09:34:25;;;;;;;6.95;3.83;;;;;;;22.96;44.12;100699.97;5000693;28;20033;-80
2022/06/08 09:37:20;;;;;;;5.13;3.60;;;;;;;22.91;44.25;100694.47;4997914;28;20531;-80
2022/06/08 09:39:47;;;;;;;6.88;3.95;;;;;;;22.95;43.94;100695.69;4996204;28;20046;-79
2022/06/08 09:42:37;;;;;;;4.35;3.45;;;;;;;22.98;44.12;100695.31;4986748;28;20033;-79
2022/06/08 09:45:20;;;;;;;6.25;3.50;;;;;;;22.87;44.00;100679.97;4987752;28;20038;-79
2022/06/08 09:51:27;;;;;;;6.25;3.78;;;;;;;23.01;44.05;100692.22;4995736;28;20052;-79
2022/06/08 09:54:09;;;;;;;5.40;3.85;;;;;;;23.01;44.02;100683.44;5001128;28;20121;-81
2022/06/08 09:56:54;;;;;;;5.50;4.00;;;;;;;23.04;44.07;100677.72;4989908;28;20033;-82
2022/06/08 09:59:23;;;;;;;5.65;3.67;;;;;;;23.01;43.96;100681.59;5004240;28;20530;-83
2022/06/08 10:01:52;;;;;;;;;;;;;;;23.01;44.04;100672.81;5004280;28;20369;-83
2022/06/08 10:04:39;;;;;;;5.20;3.88;;;;;;;22.91;44.26;100655.44;5009020;28;20009;-83
2022/06/08 10:07:16;;;;;;;6.80;3.75;;;;;;;23.03;44.25;100671.59;5003394;28;20030;-83
2022/06/08 10:09:59;;;;;;;4.80;3.53;;;;;;;23.01;44.46;100672.81;4981782;28;20049;-83
2022/06/08 10:12:40;;;;;;;5.15;3.67;;;;;;;22.97;44.34;100659.13;4991552;28;20137;-85
2022/06/08 10:15:27;;;;;;;9.00;3.47;;;;;;;22.99;44.17;100662.41;5005623;28;20403;-82
2022/06/08 10:18:05;;;;;;;5.40;3.53;;;;;;;22.92;44.31;100656.25;5004056;28;20034;-82
2022/06/08 10:20:38;;;;;;;5.93;3.63;;;;;;;23.04;44.10;100672.41;5000882;28;20033;-84
2022/06/08 10:23:10;;;;;;;5.70;3.95;;;;;;;23.05;44.07;100674.03;5004422;28;20041;-82
2022/06/08 10:25:44;;;;;;;4.63;3.53;;;;;;;23.05;44.48;100669.56;4999999;28;20847;-83
2022/06/08 10:28:25;;;;;;;5.13;3.65;;;;;;;23.02;44.21;100653.22;5002262;28;21907;-82
2022/06/08 10:31:02;;;;;;;5.38;3.38;;;;;;;23.00;44.10;100650.75;5000643;28;20039;-83
2022/06/08 10:33:48;;;;;;;5.60;3.50;;;;;;;23.05;44.24;100658.94;5003220;28;20038;-82
2022/06/08 10:36:14;;;;;;;7.18;4.05;;;;;;;23.06;44.17;100647.28;4998986;28;20416;-82
2022/06/08 10:38:42;;;;;;;4.50;3.35;;;;;;;23.05;44.60;100650.97;5001529;28;20490;-82
2022/06/08 10:44:48;;;;;;;6.60;4.10;;;;;;;22.93;44.25;100615.41;5003525;28;20124;-82
2022/06/08 10:47:13;;;;;;;5.13;3.58;;;;;;;23.06;44.26;100641.97;5004129;28;20034;-82
2022/06/08 10:49:38;;;;;;;4.82;3.72;;;;;;;23.07;44.67;100638.28;5002520;28;20923;-84
2022/06/08 10:52:19;;;;;;;6.43;3.70;;;;;;;23.07;44.74;100632.16;5003652;28;20471;-82
2022/06/08 10:54:53;;;;;;;6.20;3.85;;;;;;;22.98;44.62;100612.13;5005216;28;20077;-83
2022/06/08 10:57:37;;;;;;;4.50;3.25;;;;;;;23.09;44.64;100624.81;4978641;28;20045;-82
2022/06/08 11:00:18;;;;;;;4.75;3.70;;;;;;;23.09;44.43;100630.09;5004356;28;20038;-84
2022/06/08 11:02:50;;;;;;;4.50;3.55;;;;;;;23.00;44.47;100610.13;5003336;28;20064;-82
2022/06/08 11:05:28;;;;;;;6.72;3.65;;;;;;;23.10;44.37;100621.13;4999660;28;20042;-84
2022/06/08 11:08:06;;;;;;;7.30;3.85;;;;;;;23.09;44.66;100630.09;4999862;28;20034;-82
2022/06/08 11:10:44;;;;;;;5.20;3.15;;;;;;;23.08;44.60;100629.28;5001891;28;20040;-82
2022/06/08 11:13:18;;;;;;;6.20;3.85;;;;;;;23.09;44.34;100630.94;4992270;28;20057;-82
2022/06/08 11:15:48;;;;;;;4.70;3.65;;;;;;;23.01;44.46;100617.06;5000536;28;20038;-83
2022/06/08 11:18:28;;;;;;;7.07;3.58;;;;;;;23.03;44.82;100621.13;4999864;28;20030;-82
2022/06/08 11:21:14;;;;;;;6.20;3.50;;;;;;;23.06;44.38;100625.22;5003341;28;20511;-82
2022/06/08 11:23:55;;;;;;;6.00;3.33;;;;;;;23.05;44.15;100620.94;4996961;28;20045;-81
2022/06/08 11:26:23;;;;;;;8.57;3.55;;;;;;;23.10;44.32;100619.28;4987175;28;20068;-81
2022/06/08 11:28:53;;;;;;;3.85;3.22;;;;;;;23.03;44.22;100612.34;4998521;28;20790;-81
2022/06/08 11:31:25;;;;;;;6.07;3.63;;;;;;;23.12;44.12;100616.41;4998992;28;20046;-81
2022/06/08 11:34:04;;;;;;;4.97;3.63;;;;;;;23.12;44.05;100621.72;4994018;28;20042;-81
2022/06/08 11:36:29;;;;;;;5.28;3.80;;;;;;;23.11;44.12;100615.59;4993058;28;20667;-81
2022/06/08 11:39:02;;;;;;;4.20;3.30;;;;;;;23.11;44.37;100618.25;4995655;28;20038;-81
2022/06/08 11:41:35;;;;;;;5.45;3.63;;;;;;;23.12;44.44;100603.94;4999996;28;20145;-81
2022/06/08 11:44:09;;;;;;;7.20;3.90;;;;;;;23.11;44.27;100604.97;4995817;28;20733;-81
2022/06/08 11:46:41;;;;;;;6.13;3.60;;;;;;;23.01;44.26;100586.00;5000987;28;20034;-81
2022/06/08 11:49:30;;;;;;;5.22;3.65;;;;;;;23.09;44.02;100595.59;4998043;28;20038;-81
2022/06/08 11:51:56;;;;;;;6.15;3.42;;;;;;;23.08;44.35;100594.78;4994876;28;20049;-80
2022/06/08 11:54:29;;;;;;;4.57;3.08;;;;;;;23.06;44.47;100594.16;4996270;28;20581;-81
2022/06/08 11:57:11;;;;;;;5.68;3.53;;;;;;;23.07;44.13;100581.69;4976481;28;20096;-80
2022/06/08 11:59:40;;;;;;;5.43;3.42;;;;;;;23.11;44.05;100597.00;4986964;28;20034;-82
2022/06/08 12:02:36;;;;;;;5.60;3.70;;;;;;;23.13;44.32;100597.59;4976595;28;20042;-80
2022/06/08 12:05:04;;;;;;;3.95;3.13;;;;;;;23.06;44.30;100577.41;4970285;28;20045;-79